Time;durP1;ratioP1;P1;durP2;ratioP2;P2;SDS_P1;SDS_P2;PMS_P1;PMS_P2;Temp;Humidity;BMP_temperature;BMP_pressure;BME280_temperature;BME280_humidity;BME280_pressure;Samples;Min_cycle;Max_cycle;Signal;HPM_P1;HPM_P2
2021/05/16 04:51:39;;;;;;;18.73;11.60;;;9.30;99.90;;;;;;5360265;23;20048;-69
2021/05/16 04:54:06;;;;;;;16.38;11.88;;;9.40;99.90;;;;;;4933637;29;20076;-70
2021/05/16 04:56:33;;;;;;;16.80;10.50;;;9.40;99.90;;;;;;4925249;29;20048;-69
2021/05/16 04:59:00;;;;;;;;;;;9.40;99.90;;;;;;4915400;29;20135;-70
2021/05/16 05:01:27;;;;;;;20.50;10.60;;;9.50;99.90;;;;;;4922884;29;20398;-71
2021/05/16 05:03:55;;;;;;;14.68;10.10;;;9.40;99.90;;;;;;4934101;29;20131;-71
2021/05/16 05:06:22;;;;;;;17.02;8.80;;;9.60;99.90;;;;;;4955860;23;20487;-68
2021/05/16 05:08:50;;;;;;;12.35;6.53;;;10.20;99.90;;;;;;4934395;29;20047;-68
2021/05/16 05:11:17;;;;;;;8.77;5.60;;;10.50;99.90;;;;;;4933376;29;20043;-67
2021/05/16 05:13:43;;;;;;;;;;;10.90;99.90;;;;;;4933835;29;20123;-66
2021/05/16 05:16:09;;;;;;;9.60;5.25;;;10.90;99.90;;;;;;4914455;29;19923;-67
2021/05/16 05:18:36;;;;;;;9.50;4.53;;;11.30;99.90;;;;;;4914869;29;20048;-67
2021/05/16 05:21:02;;;;;;;10.25;4.57;;;11.70;99.90;;;;;;4920785;29;20087;-67
2021/05/16 05:23:29;;;;;;;6.95;4.32;;;12.20;99.90;;;;;;4933494;29;20527;-66
2021/05/16 05:25:58;;;;;;;7.40;3.92;;;12.30;99.90;;;;;;4932960;29;20066;-67
2021/05/16 05:28:24;;;;;;;6.75;3.58;;;12.70;99.90;;;;;;4932965;29;20039;-67
2021/05/16 05:30:51;;;;;;;8.48;4.10;;;12.50;99.90;;;;;;4931423;29;20523;-67
2021/05/16 05:33:19;;;;;;;;;;;12.30;99.90;;;;;;4933342;29;20130;-67
2021/05/16 05:35:46;;;;;;;7.80;3.90;;;12.40;99.90;;;;;;4933157;29;19930;-67
2021/05/16 05:38:12;;;;;;;;;;;12.00;99.90;;;;;;4933826;29;20044;-67
2021/05/16 05:40:38;;;;;;;10.57;5.30;;;11.50;99.90;;;;;;4932772;29;19923;-67
2021/05/16 05:43:06;;;;;;;8.43;4.68;;;11.20;99.90;;;;;;4932909;29;20043;-67
2021/05/16 05:45:33;;;;;;;7.20;5.03;;;11.10;99.90;;;;;;4933974;29;20079;-67
2021/05/16 05:47:59;;;;;;;16.15;6.05;;;11.20;99.90;;;;;;4934063;29;20066;-67
2021/05/16 05:50:26;;;;;;;;;;;11.10;99.90;;;;;;4933622;29;20047;-67
2021/05/16 05:52:53;;;;;;;12.80;5.00;;;11.20;99.90;;;;;;4933090;29;20013;-67
2021/05/16 05:55:20;;;;;;;9.88;5.78;;;11.20;99.90;;;;;;4933294;29;20168;-67
2021/05/16 05:57:46;;;;;;;9.57;5.00;;;11.10;99.90;;;;;;4933384;29;20051;-67
2021/05/16 06:00:15;;;;;;;10.27;5.57;;;11.10;99.90;;;;;;4933512;29;20186;-67
2021/05/16 06:02:42;;;;;;;19.70;5.78;;;11.10;99.90;;;;;;4932358;29;20110;-67
2021/05/16 06:05:09;;;;;;;9.23;5.75;;;11.10;99.90;;;;;;4932372;29;20048;-68
2021/05/16 06:07:36;;;;;;;15.45;6.32;;;11.20;99.90;;;;;;4933761;29;20091;-68
2021/05/16 06:10:03;;;;;;;9.15;5.25;;;11.40;99.90;;;;;;4931673;29;20602;-68
2021/05/16 06:12:30;;;;;;;12.07;5.82;;;11.70;99.90;;;;;;4931635;29;20066;-67
2021/05/16 06:14:59;;;;;;;11.07;5.95;;;11.40;99.90;;;;;;4933086;29;20119;-66
2021/05/16 06:17:26;;;;;;;8.43;6.20;;;11.20;99.90;;;;;;4933459;29;20047;-66
2021/05/16 06:19:53;;;;;;;8.43;6.13;;;11.10;99.90;;;;;;4933691;29;20079;-66
2021/05/16 06:22:19;;;;;;;13.82;6.47;;;11.10;99.90;;;;;;4933401;29;20436;-66
2021/05/16 06:24:46;;;;;;;12.07;6.00;;;11.10;99.90;;;;;;4932484;29;20082;-68
2021/05/16 06:27:12;;;;;;;12.98;5.70;;;11.10;99.90;;;;;;4933884;29;20102;-67
2021/05/16 06:29:39;;;;;;;10.50;5.43;;;11.10;99.90;;;;;;4933391;29;20094;-68
2021/05/16 06:32:08;;;;;;;11.93;6.05;;;11.30;99.90;;;;;;4933435;29;20468;-67
2021/05/16 06:34:36;;;;;;;9.98;5.43;;;11.40;99.90;;;;;;4933731;29;20075;-67
2021/05/16 06:37:03;;;;;;;13.18;5.80;;;11.30;99.90;;;;;;4933680;29;20167;-67
2021/05/16 06:39:29;;;;;;;12.40;5.03;;;11.40;99.90;;;;;;4933200;29;20214;-68
2021/05/16 06:41:56;;;;;;;12.32;5.38;;;11.30;99.90;;;;;;4933088;29;20131;-67
2021/05/16 06:44:23;;;;;;;7.55;4.85;;;11.40;99.90;;;;;;4933211;29;20048;-67
2021/05/16 06:46:50;;;;;;;9.63;4.80;;;11.50;99.90;;;;;;4933320;29;20067;-68
2021/05/16 06:49:16;;;;;;;;;;;11.20;99.90;;;;;;4933704;29;20046;-67
2021/05/16 06:51:43;;;;;;;8.98;4.78;;;11.40;99.90;;;;;;4933206;29;19927;-68
2021/05/16 06:54:10;;;;;;;12.65;5.82;;;11.50;99.90;;;;;;4933674;29;20044;-67
2021/05/16 06:56:37;;;;;;;10.23;4.38;;;11.60;99.90;;;;;;4933298;29;20090;-68
2021/05/16 06:59:04;;;;;;;9.52;4.97;;;11.80;99.90;;;;;;4933347;29;20444;-68
2021/05/16 07:01:31;;;;;;;8.45;4.65;;;12.10;99.90;;;;;;4933605;29;20059;-68
2021/05/16 07:03:57;;;;;;;6.70;4.90;;;12.10;99.90;;;;;;4932444;29;20514;-67
2021/05/16 07:06:25;;;;;;;5.63;4.30;;;11.90;99.90;;;;;;4933325;29;20071;-68
2021/05/16 07:08:53;;;;;;;7.13;4.40;;;11.80;99.90;;;;;;4934103;29;20280;-68
2021/05/16 07:11:19;;;;;;;8.05;3.38;;;12.60;99.90;;;;;;4933185;29;20031;-68
2021/05/16 07:13:46;;;;;;;;;;;13.30;99.90;;;;;;4934119;29;20070;-66
2021/05/16 07:16:12;;;;;;;5.80;2.53;;;14.30;99.90;;;;;;4931582;29;20393;-66
2021/05/16 07:18:39;;;;;;;7.18;3.08;;;14.40;99.90;;;;;;4933396;29;20044;-66
2021/05/16 07:21:06;;;;;;;5.20;3.25;;;13.70;99.90;;;;;;4932557;29;20067;-67
2021/05/16 07:23:32;;;;;;;;;;;13.70;99.90;;;;;;4933676;29;20055;-66
2021/05/16 07:26:00;;;;;;;7.72;3.25;;;13.40;99.90;;;;;;4935998;29;19969;-66
2021/05/16 07:28:26;;;;;;;8.40;3.30;;;13.10;99.90;;;;;;4935741;29;20048;-67
2021/05/16 07:30:53;;;;;;;5.35;3.45;;;12.80;99.90;;;;;;4935161;29;20300;-68
2021/05/16 07:33:19;;;;;;;9.88;3.92;;;12.80;99.90;;;;;;4935836;29;20044;-68
2021/05/16 07:35:46;;;;;;;9.27;3.75;;;12.60;99.90;;;;;;4935919;29;20464;-68
2021/05/16 07:38:13;;;;;;;8.48;3.58;;;12.80;99.90;;;;;;4936378;29;20122;-66
2021/05/16 07:40:39;;;;;;;6.68;3.25;;;12.80;99.90;;;;;;4935547;29;20040;-68
2021/05/16 07:43:07;;;;;;;6.72;3.72;;;12.70;99.90;;;;;;4936128;29;20583;-67
2021/05/16 07:45:34;;;;;;;8.43;3.33;;;12.60;99.90;;;;;;4935896;29;20055;-67
2021/05/16 07:48:01;;;;;;;14.55;3.85;;;12.60;99.90;;;;;;4936292;29;20523;-67
2021/05/16 07:50:28;;;;;;;6.97;3.13;;;12.70;99.90;;;;;;4935381;29;20046;-67
2021/05/16 07:52:54;;;;;;;;;;;13.00;99.90;;;;;;4936594;29;20048;-67
2021/05/16 07:55:20;;;;;;;6.53;3.35;;;13.20;99.90;;;;;;4935739;29;19927;-67
2021/05/16 07:57:48;;;;;;;8.15;3.33;;;12.90;99.90;;;;;;4934441;29;20599;-67
2021/05/16 08:00:17;;;;;;;10.27;4.10;;;12.80;99.90;;;;;;4935370;29;20381;-67
2021/05/16 08:02:44;;;;;;;3.92;3.00;;;12.80;99.90;;;;;;4936187;29;20102;-67
2021/05/16 08:05:12;;;;;;;5.25;3.22;;;12.60;99.90;;;;;;4935801;29;20090;-67
2021/05/16 08:07:38;;;;;;;9.25;3.53;;;12.90;99.90;;;;;;4935450;29;20118;-68
2021/05/16 08:10:07;;;;;;;7.97;3.55;;;12.90;99.90;;;;;;4935357;29;20416;-67
2021/05/16 08:12:33;;;;;;;4.47;3.55;;;13.00;99.90;;;;;;4935826;29;20044;-67
2021/05/16 08:15:00;;;;;;;4.28;3.47;;;12.80;99.90;;;;;;4934456;29;20066;-67
2021/05/16 08:17:28;;;;;;;4.90;3.95;;;12.50;99.90;;;;;;4934783;29;20484;-67
2021/05/16 08:19:54;;;;;;;4.43;3.35;;;12.50;99.90;;;;;;4937475;29;20035;-68
2021/05/16 08:22:21;;;;;;;7.07;3.75;;;12.30;99.90;;;;;;4932961;29;20044;-67
2021/05/16 08:24:47;;;;;;;8.80;2.85;;;12.70;99.90;;;;;;4936282;29;20040;-67
2021/05/16 08:27:14;;;;;;;;;;;13.20;99.90;;;;;;4936881;29;20179;-66
2021/05/16 08:29:40;;;;;;;2.65;2.05;;;14.40;99.90;;;;;;4940508;29;20025;-66
2021/05/16 08:32:07;;;;;;;1.48;1.33;;;15.70;99.90;;;;;;4950247;28;20075;-66
2021/05/16 08:34:35;;;;;;;4.05;2.13;;;16.30;99.90;;;;;;4947908;28;20043;-66
2021/05/16 08:37:04;;;;;;;2.17;1.23;;;16.20;99.90;;;;;;4941041;29;20451;-67
2021/05/16 08:39:31;;;;;;;2.90;1.27;;;16.40;99.90;;;;;;4944257;29;20078;-66
2021/05/16 08:41:58;;;;;;;3.72;1.13;;;16.60;99.90;;;;;;4938013;29;20043;-67
2021/05/16 08:44:24;;;;;;;;;;;17.70;99.90;;;;;;4940386;29;20640;-67
2021/05/16 08:46:52;;;;;;;3.30;1.10;;;17.60;99.90;;;;;;4938721;29;20418;-68
2021/05/16 08:49:18;;;;;;;1.60;0.85;;;17.50;99.90;;;;;;4939226;29;20050;-67
2021/05/16 08:51:49;;;;;;;3.30;0.85;;;17.50;99.90;;;;;;4939539;29;20655;-67
2021/05/16 08:54:17;;;;;;;2.15;1.00;;;17.10;99.90;;;;;;4940459;29;20480;-66
2021/05/16 08:56:46;;;;;;;2.25;1.00;;;17.10;99.90;;;;;;4939706;29;20047;-67
2021/05/16 08:59:13;;;;;;;3.33;1.02;;;16.60;99.90;;;;;;4940223;29;20240;-66
2021/05/16 09:01:46;;;;;;;2.85;1.20;;;16.40;99.90;;;;;;4943137;29;20134;-66
2021/05/16 09:04:23;;;;;;;3.03;1.10;;;16.20;99.90;;;;;;4942378;29;20039;-67
2021/05/16 09:06:54;;;;;;;3.80;1.20;;;15.30;99.90;;;;;;4941629;29;20047;-66
2021/05/16 09:09:30;;;;;;;3.70;1.00;;;15.00;99.90;;;;;;4940950;29;20059;-66
2021/05/16 09:11:59;;;;;;;3.38;1.20;;;15.00;99.90;;;;;;4939140;29;20130;-68
2021/05/16 09:14:43;;;;;;;2.33;0.95;;;14.40;99.90;;;;;;4939143;29;20066;-66
2021/05/16 09:17:25;;;;;;;4.15;1.80;;;14.00;99.90;;;;;;4938869;29;20079;-68
2021/05/16 09:19:54;;;;;;;6.45;1.40;;;13.80;99.90;;;;;;4938440;29;20054;-68
2021/05/16 09:22:36;;;;;;;2.80;1.23;;;14.00;99.90;;;;;;4940265;29;20067;-68
2021/05/16 09:25:09;;;;;;;6.70;1.58;;;14.20;99.90;;;;;;4938325;29;20055;-66
2021/05/16 09:27:36;;;;;;;1.80;1.17;;;14.50;99.90;;;;;;4939241;29;20043;-66
2021/05/16 09:30:29;;;;;;;2.70;1.48;;;14.30;99.90;;;;;;4938843;29;20043;-66
2021/05/16 09:33:01;;;;;;;4.72;2.08;;;13.90;99.90;;;;;;4936831;29;20036;-67
2021/05/16 09:35:40;;;;;;;2.88;1.80;;;13.60;99.90;;;;;;4935981;29;20052;-68
2021/05/16 09:38:13;;;;;;;4.57;2.38;;;13.20;99.90;;;;;;4936752;29;20079;-67
2021/05/16 09:40:42;;;;;;;2.92;1.80;;;13.00;99.90;;;;;;4936086;29;20044;-67
2021/05/16 09:43:16;;;;;;;5.85;1.60;;;13.10;99.90;;;;;;4937818;29;20036;-67
2021/05/16 09:45:45;;;;;;;5.95;1.95;;;13.20;99.90;;;;;;4937171;29;20039;-67
2021/05/16 09:48:38;;;;;;;5.88;1.08;;;13.80;99.90;;;;;;4938839;29;20138;-66
2021/05/16 09:51:19;;;;;;;1.35;0.70;;;14.60;99.90;;;;;;4939446;29;20502;-68
2021/05/16 09:54:06;;;;;;;1.73;0.80;;;15.00;99.90;;;;;;4943641;29;20056;-67
2021/05/16 09:56:35;;;;;;;2.88;0.85;;;15.10;99.90;;;;;;4945358;29;20103;-67
2021/05/16 09:59:04;;;;;;;6.15;0.98;;;14.90;99.90;;;;;;4944104;29;20067;-67
2021/05/16 10:01:31;;;;;;;7.30;1.27;;;14.40;99.90;;;;;;4943077;29;20777;-67
2021/05/16 10:04:00;;;;;;;2.55;1.50;;;14.30;99.90;;;;;;4945237;29;20126;-68
2021/05/16 10:06:28;;;;;;;3.45;1.48;;;14.40;99.90;;;;;;4943414;29;20051;-65
2021/05/16 10:08:55;;;;;;;2.25;0.90;;;15.00;99.90;;;;;;4941130;29;20051;-66
2021/05/16 10:11:27;;;;;;;2.88;0.90;;;16.40;99.90;;;;;;4941718;29;20052;-66
2021/05/16 10:14:02;;;;;;;3.08;1.10;;;17.60;99.90;;;;;;4943613;29;20043;-66
2021/05/16 10:16:33;;;;;;;7.45;2.08;;;17.90;99.90;;;;;;4943568;29;20062;-66
2021/05/16 10:19:01;;;;;;;7.47;1.58;;;17.30;99.90;;;;;;4944475;29;20051;-66
2021/05/16 10:21:27;;;;;;;5.78;1.30;;;17.30;99.90;;;;;;4943259;29;20052;-66
2021/05/16 10:24:07;;;;;;;;;;;17.30;99.90;;;;;;4946303;29;20071;-67
2021/05/16 10:26:34;;;;;;;4.80;1.17;;;16.50;99.90;;;;;;4938640;29;19923;-67
2021/05/16 10:29:06;;;;;;;5.03;1.05;;;16.10;99.90;;;;;;4934722;29;20658;-67
2021/05/16 10:31:55;;;;;;;3.97;1.40;;;16.00;99.90;;;;;;4934921;29;20047;-66
2021/05/16 10:34:43;;;;;;;1.25;0.60;;;16.00;99.90;;;;;;4930763;29;20071;-66
2021/05/16 10:37:13;;;;;;;5.38;0.70;;;15.20;99.90;;;;;;4934718;29;20058;-66
2021/05/16 10:39:53;;;;;;;5.35;1.40;;;14.70;99.90;;;;;;4932871;29;20530;-66
2021/05/16 10:42:22;;;;;;;5.22;1.83;;;14.30;99.90;;;;;;4933075;29;20183;-67
2021/05/16 10:44:59;;;;;;;3.15;1.40;;;14.10;99.90;;;;;;4933619;29;20044;-66
2021/05/16 10:47:56;;;;;;;3.15;1.23;;;14.30;99.90;;;;;;4942987;29;20064;-70
2021/05/16 10:50:38;;;;;;;3.88;1.83;;;14.90;99.90;;;;;;4929779;29;20115;-72
2021/05/16 10:53:08;;;;;;;7.22;2.40;;;15.30;99.90;;;;;;4941052;29;20040;-70
2021/05/16 10:55:37;;;;;;;3.63;1.98;;;15.60;99.90;;;;;;4942320;29;20047;-70
2021/05/16 10:58:05;;;;;;;3.55;1.02;;;16.10;99.90;;;;;;4942331;29;20059;-70
2021/05/16 11:00:34;;;;;;;3.95;0.88;;;16.80;99.90;;;;;;4941604;29;20040;-70
2021/05/16 11:03:04;;;;;;;4.05;1.30;;;17.50;99.90;;;;;;4944812;29;20055;-70
2021/05/16 11:05:54;;;;;;;7.68;1.58;;;17.70;99.90;;;;;;4942727;29;20062;-71
2021/05/16 11:09:11;;;;;;;4.07;1.10;;;18.50;99.90;;;;;;4944681;29;20455;-71
2021/05/16 11:11:55;;;;;;;1.30;0.75;;;18.50;99.90;;;;;;4939738;29;20054;-70
2021/05/16 11:14:24;;;;;;;3.35;0.90;;;18.50;99.90;;;;;;4945493;29;20063;-72
2021/05/16 11:16:56;;;;;;;1.80;0.82;;;18.50;99.90;;;;;;4947242;29;20044;-73
2021/05/16 11:19:25;;;;;;;2.15;0.82;;;18.50;99.90;;;;;;4942681;29;20067;-72
2021/05/16 11:21:52;;;;;;;4.63;1.20;;;18.80;99.90;;;;;;4961772;28;20047;-72
2021/05/16 11:24:41;;;;;;;4.90;1.52;;;18.60;99.90;;;;;;4967017;29;20051;-72
2021/05/16 11:27:29;;;;;;;4.03;1.33;;;18.40;99.90;;;;;;4960760;28;20051;-71
2021/05/16 11:29:59;;;;;;;4.15;1.00;;;18.10;99.90;;;;;;4941917;29;20087;-71
2021/05/16 11:32:30;;;;;;;3.53;1.10;;;17.50;99.90;;;;;;4946714;29;20048;-71
2021/05/16 11:35:10;;;;;;;4.93;1.50;;;17.20;99.90;;;;;;4947675;29;20429;-70
2021/05/16 11:37:38;;;;;;;4.53;1.23;;;16.30;99.90;;;;;;4937568;29;20048;-70
2021/05/16 11:40:28;;;;;;;1.08;0.40;;;15.60;99.90;;;;;;4928270;29;20050;-71
2021/05/16 11:42:57;;;;;;;6.60;1.50;;;14.50;99.90;;;;;;4927784;29;20063;-71
2021/05/16 11:45:29;;;;;;;3.17;0.40;;;13.60;99.90;;;;;;4940394;29;20054;-68
2021/05/16 11:47:56;;;;;;;3.17;0.80;;;12.80;99.90;;;;;;4963019;28;20074;-68
2021/05/16 11:50:36;;;;;;;;;;;12.40;99.90;;;;;;4957416;29;20056;-68
2021/05/16 11:53:03;;;;;;;2.33;0.60;;;12.20;99.90;;;;;;4944753;29;19922;-68
2021/05/16 11:55:30;;;;;;;1.92;0.55;;;12.10;99.90;;;;;;4941512;29;20106;-69
2021/05/16 11:57:58;;;;;;;2.30;0.68;;;12.50;99.90;;;;;;4942379;29;20048;-69
2021/05/16 12:00:29;;;;;;;1.15;0.52;;;13.60;99.90;;;;;;4942233;29;20262;-67
2021/05/16 12:03:12;;;;;;;1.35;0.38;;;14.70;99.90;;;;;;4940352;29;20168;-70
2021/05/16 12:05:39;;;;;;;0.82;0.30;;;15.40;99.90;;;;;;4941297;29;20148;-72
2021/05/16 12:08:20;;;;;;;1.40;0.57;;;15.90;99.90;;;;;;4942197;29;20068;-73
2021/05/16 12:11:03;;;;;;;0.88;0.40;;;16.60;99.90;;;;;;4945463;29;20040;-72
2021/05/16 12:13:30;;;;;;;0.88;0.50;;;16.90;99.90;;;;;;4946126;29;20044;-72
2021/05/16 12:16:13;;;;;;;1.80;0.43;;;17.40;99.90;;;;;;4944110;29;20496;-72
2021/05/16 12:18:42;;;;;;;0.65;0.50;;;18.10;99.90;;;;;;4937227;29;20131;-72
2021/05/16 12:21:09;;;;;;;2.60;0.52;;;18.60;99.90;;;;;;4938552;29;20399;-72
2021/05/16 12:23:37;;;;;;;1.95;0.45;;;18.70;99.90;;;;;;4954372;29;20051;-72
2021/05/16 12:26:05;;;;;;;1.70;0.70;;;18.70;99.90;;;;;;4960240;29;20051;-72
2021/05/16 12:28:32;;;;;;;2.35;0.77;;;18.90;99.90;;;;;;4952033;28;20062;-72
2021/05/16 12:31:00;;;;;;;;;;;19.20;99.90;;;;;;4947263;29;20035;-73
2021/05/16 12:33:27;;;;;;;2.90;0.95;;;18.70;99.90;;;;;;4934916;29;19926;-74
2021/05/16 12:35:54;;;;;;;2.13;0.98;;;18.60;99.90;;;;;;4935952;29;20071;-74
2021/05/16 12:38:21;;;;;;;6.63;1.10;;;19.40;99.90;;;;;;4935565;29;20130;-73
2021/05/16 12:40:47;;;;;;;4.50;0.95;;;19.50;99.90;;;;;;4942279;29;20046;-72
2021/05/16 12:43:18;;;;;;;;;;;19.90;99.90;;;;;;4954609;28;20070;-72
2021/05/16 12:45:45;;;;;;;3.28;0.82;;;20.00;99.90;;;;;;4942427;29;20222;-71
2021/05/16 12:48:19;;;;;;;2.17;0.75;;;20.40;99.90;;;;;;4932630;29;20075;-71
2021/05/16 12:50:48;;;;;;;3.60;1.30;;;21.10;99.90;;;;;;4930493;29;20530;-72
2021/05/16 12:53:35;;;;;;;2.83;1.00;;;21.40;99.90;;;;;;4931840;29;20048;-71
2021/05/16 12:56:14;;;;;;;2.13;0.80;;;21.30;99.90;;;;;;4931594;29;20047;-69
2021/05/16 12:58:53;;;;;;;3.92;1.20;;;20.40;99.90;;;;;;4932274;29;20436;-70
2021/05/16 13:01:21;;;;;;;6.38;1.88;;;19.90;99.90;;;;;;4928988;29;20868;-71
2021/05/16 13:03:55;;;;;;;4.03;0.95;;;19.80;99.90;;;;;;4929293;29;20047;-71
2021/05/16 13:06:22;;;;;;;2.55;1.00;;;19.30;99.90;;;;;;4927702;29;21245;-71
2021/05/16 13:08:53;;;;;;;2.63;0.90;;;19.00;99.90;;;;;;4936421;29;20075;-72
2021/05/16 13:11:19;;;;;;;3.40;0.70;;;19.30;99.90;;;;;;4936069;29;20117;-68
2021/05/16 13:13:47;;;;;;;2.08;0.90;;;18.90;99.90;;;;;;4934424;29;20058;-68
2021/05/16 13:16:15;;;;;;;3.17;0.77;;;19.60;99.90;;;;;;4935012;29;20130;-68
2021/05/16 13:18:51;;;;;;;2.72;1.30;;;20.00;99.90;;;;;;4931742;29;20932;-68
2021/05/16 13:21:32;;;;;;;2.58;0.68;;;20.30;99.90;;;;;;4925437;29;20620;-67
2021/05/16 13:24:09;;;;;;;4.30;1.27;;;20.00;99.90;;;;;;4927127;29;20091;-67
2021/05/16 13:26:51;;;;;;;10.10;1.38;;;20.40;99.90;;;;;;4934663;29;20460;-67
2021/05/16 13:29:18;;;;;;;1.83;0.70;;;21.00;99.90;;;;;;4932883;29;20508;-67
2021/05/16 13:31:45;;;;;;;2.47;1.15;;;20.40;99.90;;;;;;4933097;29;20040;-67
2021/05/16 13:34:23;;;;;;;4.22;0.90;;;20.80;99.90;;;;;;4934058;29;20056;-67
2021/05/16 13:36:55;;;;;;;3.45;1.17;;;20.50;99.90;;;;;;4933888;29;20471;-67
2021/05/16 13:39:21;;;;;;;1.58;0.80;;;20.60;99.90;;;;;;4932642;29;20400;-67
2021/05/16 13:41:48;;;;;;;;;;;19.80;99.90;;;;;;4916015;29;20047;-67
2021/05/16 13:44:15;;;;;;;3.63;1.15;;;19.10;99.90;;;;;;4933534;29;19922;-67
2021/05/16 13:46:42;;;;;;;4.78;1.15;;;18.60;99.90;;;;;;4933308;29;20424;-67
2021/05/16 13:49:11;;;;;;;4.70;1.25;;;18.20;99.90;;;;;;4933373;29;20119;-67
2021/05/16 13:51:40;;;;;;;2.92;1.20;;;17.90;99.90;;;;;;4931199;29;20051;-67
2021/05/16 13:54:09;;;;;;;5.05;1.40;;;18.20;99.90;;;;;;4914736;29;20036;-67
2021/05/16 13:56:37;;;;;;;5.50;1.65;;;17.80;99.90;;;;;;4914647;29;20080;-67
2021/05/16 13:59:08;;;;;;;7.05;1.25;;;17.30;99.90;;;;;;4912838;29;20493;-68
2021/05/16 14:01:35;;;;;;;2.28;1.00;;;17.80;99.90;;;;;;4914169;29;20040;-68
2021/05/16 14:04:02;;;;;;;4.45;1.20;;;18.80;99.90;;;;;;4931807;29;20067;-67
2021/05/16 14:06:30;;;;;;;2.80;0.95;;;18.70;99.90;;;;;;4932565;29;20094;-68
2021/05/16 14:08:56;;;;;;;6.28;1.50;;;18.00;99.90;;;;;;4932079;29;20052;-67
2021/05/16 14:11:24;;;;;;;;;;;17.50;99.90;;;;;;4933703;29;20069;-67
2021/05/16 14:13:51;;;;;;;3.85;1.10;;;18.40;99.90;;;;;;4932396;29;19922;-68
2021/05/16 14:16:18;;;;;;;;;;;18.80;99.90;;;;;;4931918;29;20411;-68
2021/05/16 14:18:45;;;;;;;3.72;1.02;;;18.90;99.90;;;;;;4932116;29;20342;-68
2021/05/16 14:21:12;;;;;;;5.00;1.30;;;18.50;99.90;;;;;;4933016;29;20043;-67
2021/05/16 14:23:39;;;;;;;3.05;0.95;;;17.80;99.90;;;;;;4931525;29;20463;-68
2021/05/16 14:26:06;;;;;;;2.72;0.75;;;17.20;99.90;;;;;;4933577;29;20040;-68
2021/05/16 14:28:33;;;;;;;5.65;0.85;;;17.20;99.90;;;;;;4921480;29;20048;-67
2021/05/16 14:31:00;;;;;;;3.92;1.20;;;17.10;99.90;;;;;;4915066;29;20277;-68
2021/05/16 14:33:27;;;;;;;4.43;1.60;;;16.80;99.90;;;;;;4922124;29;20060;-67
2021/05/16 14:35:54;;;;;;;4.07;0.98;;;16.80;99.90;;;;;;4936747;29;20054;-69
2021/05/16 14:38:21;;;;;;;5.07;1.20;;;16.50;99.90;;;;;;4936396;29;20230;-69
2021/05/16 14:40:48;;;;;;;;;;;16.30;99.90;;;;;;4935334;29;20066;-68
2021/05/16 14:43:17;;;;;;;3.35;0.90;;;16.30;99.90;;;;;;4935980;29;19929;-69
2021/05/16 14:45:45;;;;;;;6.22;0.93;;;16.60;99.90;;;;;;4936770;29;20105;-68
2021/05/16 14:48:12;;;;;;;5.30;1.30;;;16.60;99.90;;;;;;4934873;29;20052;-68
2021/05/16 14:50:44;;;;;;;6.65;1.60;;;16.60;99.90;;;;;;4935932;29;20220;-68
2021/05/16 14:53:11;;;;;;;8.63;1.30;;;16.20;99.90;;;;;;4935837;29;20048;-68
2021/05/16 14:55:39;;;;;;;2.75;0.82;;;16.10;99.90;;;;;;4936929;29;20043;-68
2021/05/16 14:58:06;;;;;;;4.10;1.27;;;15.80;99.90;;;;;;4936421;29;20148;-68
2021/05/16 15:00:33;;;;;;;;;;;15.60;99.90;;;;;;4936446;29;20067;-68
2021/05/16 15:03:00;;;;;;;8.68;1.42;;;15.50;99.90;;;;;;4936027;29;20288;-69
2021/05/16 15:05:27;;;;;;;5.68;1.13;;;15.40;99.90;;;;;;4935401;29;20408;-67
2021/05/16 15:07:54;;;;;;;;;;;15.20;99.90;;;;;;4936470;29;20048;-68
2021/05/16 15:10:21;;;;;;;5.63;1.17;;;15.10;99.90;;;;;;4936330;29;19926;-69
2021/05/16 15:12:48;;;;;;;2.15;1.13;;;15.00;99.90;;;;;;4935248;29;20040;-68
2021/05/16 15:15:15;;;;;;;6.80;1.63;;;15.10;99.90;;;;;;4935308;29;20103;-68
2021/05/16 15:17:42;;;;;;;4.55;1.40;;;15.00;99.90;;;;;;4933367;29;20122;-69
2021/05/16 15:20:12;;;;;;;6.05;1.30;;;15.10;99.90;;;;;;4935448;29;20082;-69
2021/05/16 15:22:38;;;;;;;5.75;1.30;;;15.30;99.90;;;;;;4936258;29;20052;-69
2021/05/16 15:25:06;;;;;;;4.80;1.33;;;15.40;99.90;;;;;;4936610;29;20079;-68
2021/05/16 15:27:32;;;;;;;6.32;1.88;;;15.80;99.90;;;;;;4936368;29;20063;-68
2021/05/16 15:29:59;;;;;;;11.85;2.15;;;16.00;99.90;;;;;;4934329;29;20059;-68
2021/05/16 15:32:26;;;;;;;5.80;2.42;;;16.20;99.90;;;;;;4936051;29;20050;-68
2021/05/16 15:34:59;;;;;;;7.72;2.35;;;16.40;99.90;;;;;;4936272;29;20051;-68
2021/05/16 15:37:26;;;;;;;4.78;1.90;;;16.50;99.90;;;;;;4935909;29;20138;-67
2021/05/16 15:39:54;;;;;;;5.93;2.03;;;16.70;99.90;;;;;;4930232;29;20064;-68
2021/05/16 15:42:21;;;;;;;4.90;1.33;;;16.90;99.90;;;;;;4921917;29;20090;-70
2021/05/16 15:44:47;;;;;;;;;;;17.10;99.90;;;;;;4935941;29;20055;-66
2021/05/16 15:47:14;;;;;;;3.47;1.08;;;17.30;99.90;;;;;;4936104;29;20418;-69
2021/05/16 15:49:41;;;;;;;8.90;1.27;;;17.30;99.90;;;;;;4934116;29;20095;-69
2021/05/16 15:52:08;;;;;;;3.85;1.40;;;17.30;99.90;;;;;;4935844;29;20043;-68
2021/05/16 15:54:36;;;;;;;3.20;0.98;;;17.00;99.90;;;;;;4935403;29;20110;-68
2021/05/16 15:57:03;;;;;;;8.10;1.63;;;16.90;99.90;;;;;;4935373;29;20052;-67
2021/05/16 15:59:30;;;;;;;5.18;1.23;;;17.10;99.90;;;;;;4932774;29;20123;-68
2021/05/16 16:01:56;;;;;;;6.15;1.83;;;17.00;99.90;;;;;;4932924;29;20047;-69
2021/05/16 16:04:23;;;;;;;6.18;1.30;;;17.20;99.90;;;;;;4933480;29;20075;-69
2021/05/16 16:06:52;;;;;;;11.10;1.67;;;17.20;99.90;;;;;;4933564;29;20126;-69
2021/05/16 16:09:18;;;;;;;6.40;2.08;;;17.20;99.90;;;;;;4935744;29;20127;-67
2021/05/16 16:11:46;;;;;;;4.50;1.48;;;17.10;99.90;;;;;;4934907;29;20460;-68
2021/05/16 16:14:13;;;;;;;5.43;1.55;;;16.70;99.90;;;;;;4932475;29;20055;-68
2021/05/16 16:16:40;;;;;;;7.90;1.58;;;16.80;99.90;;;;;;4934362;29;20050;-67
2021/05/16 16:19:07;;;;;;;6.40;1.38;;;16.70;99.90;;;;;;4933662;29;20052;-66
2021/05/16 16:21:33;;;;;;;12.10;7.03;;;16.60;99.90;;;;;;4934729;29;20389;-68
2021/05/16 16:24:00;;;;;;;6.22;2.15;;;16.50;99.90;;;;;;4933872;29;20043;-68
2021/05/16 16:26:26;;;;;;;4.25;1.38;;;16.00;99.90;;;;;;4934352;29;20161;-68
2021/05/16 16:28:54;;;;;;;8.52;2.17;;;15.90;99.90;;;;;;4933444;29;20059;-66
2021/05/16 16:31:20;;;;;;;6.82;1.75;;;15.60;99.90;;;;;;4934539;29;20054;-68
2021/05/16 16:33:47;;;;;;;8.57;1.52;;;14.90;99.90;;;;;;4934494;29;20057;-66
2021/05/16 16:36:13;;;;;;;5.38;1.60;;;14.40;99.90;;;;;;4934607;29;20389;-66
2021/05/16 16:38:40;;;;;;;5.35;1.73;;;14.00;99.90;;;;;;4931882;29;20403;-66
2021/05/16 16:41:06;;;;;;;7.13;1.40;;;13.80;99.90;;;;;;4934216;29;20075;-68
2021/05/16 16:43:34;;;;;;;5.65;1.40;;;13.80;99.90;;;;;;4935092;29;20043;-65
2021/05/16 16:46:01;;;;;;;4.85;1.13;;;13.70;99.90;;;;;;4934941;29;20059;-67
2021/05/16 16:48:34;;;;;;;7.25;1.27;;;13.60;99.90;;;;;;4933231;29;20058;-66
2021/05/16 16:51:02;;;;;;;1.98;0.93;;;13.50;99.90;;;;;;4931594;29;20054;-67
2021/05/16 16:53:28;;;;;;;6.32;2.83;;;13.30;99.90;;;;;;4915496;29;20408;-68
2021/05/16 16:55:55;;;;;;;4.70;1.23;;;13.30;99.90;;;;;;4914282;29;20055;-69
2021/05/16 16:58:22;;;;;;;6.55;2.53;;;13.10;99.90;;;;;;4914935;29;20059;-66
2021/05/16 17:00:49;;;;;;;7.13;2.88;;;13.00;99.90;;;;;;4925941;29;20052;-66
2021/05/16 17:03:17;;;;;;;7.47;3.45;;;13.00;99.90;;;;;;4931255;29;20135;-68
2021/05/16 17:05:44;;;;;;;7.65;1.92;;;13.00;99.90;;;;;;4957238;23;20872;-68
2021/05/16 17:08:12;;;;;;;7.00;1.67;;;13.00;99.90;;;;;;4950971;29;20039;-68
2021/05/16 17:10:39;;;;;;;1.52;0.85;;;13.00;99.90;;;;;;4950366;29;20051;-68
2021/05/16 17:13:06;;;;;;;4.47;1.45;;;13.00;99.90;;;;;;4951919;29;20129;-68
2021/05/16 17:15:33;;;;;;;4.03;1.20;;;13.10;99.90;;;;;;4950960;29;20463;-68
2021/05/16 17:18:00;;;;;;;2.78;1.00;;;13.10;99.90;;;;;;4949742;29;20039;-68
2021/05/16 17:20:28;;;;;;;1.40;0.90;;;13.00;99.90;;;;;;4951390;28;20047;-68
2021/05/16 17:22:55;;;;;;;3.60;0.95;;;12.90;99.90;;;;;;4951489;28;20085;-67
2021/05/16 17:25:22;;;;;;;5.55;1.85;;;12.80;99.90;;;;;;4953045;28;20077;-67
2021/05/16 17:27:49;;;;;;;8.10;3.92;;;12.80;99.90;;;;;;4951190;28;20061;-68
2021/05/16 17:30:17;;;;;;;5.05;2.95;;;12.80;99.90;;;;;;4951581;28;20043;-67
2021/05/16 17:32:44;;;;;;;4.72;1.73;;;12.70;99.90;;;;;;4950752;28;20086;-68
2021/05/16 17:35:12;;;;;;;7.00;1.55;;;12.60;99.90;;;;;;4952845;29;20495;-71
2021/05/16 17:37:40;;;;;;;5.72;2.30;;;12.40;99.90;;;;;;4952070;28;20557;-70
2021/05/16 17:40:09;;;;;;;4.03;1.92;;;12.30;99.90;;;;;;4945567;28;20047;-69
2021/05/16 17:42:37;;;;;;;3.42;1.65;;;12.30;99.90;;;;;;4935514;29;20047;-70
2021/05/16 17:45:05;;;;;;;6.22;1.77;;;12.20;99.90;;;;;;4952496;28;20419;-70
2021/05/16 17:47:32;;;;;;;5.80;1.02;;;12.10;99.90;;;;;;4951471;28;20134;-70
2021/05/16 17:49:59;;;;;;;2.85;1.08;;;12.00;99.90;;;;;;4951479;28;20039;-70
2021/05/16 17:52:26;;;;;;;4.05;1.25;;;11.80;99.90;;;;;;4951115;28;20486;-70